createdAt,value
2023-02-02T00:01:45.442Z,73.92
2023-02-02T00:04:19.222Z,73.28
2023-02-02T00:06:46.047Z,73.26
2023-02-02T00:09:13.470Z,73.11
2023-02-02T00:11:39.765Z,73.17
2023-02-02T00:14:07.807Z,73.10
2023-02-02T00:16:34.500Z,74.24
2023-02-02T00:19:02.213Z,72.77
2023-02-02T00:21:28.775Z,73.08
2023-02-02T00:23:55.355Z,73.53
2023-02-02T00:26:21.778Z,73.28
2023-02-02T00:28:48.170Z,73.90
2023-02-02T00:31:14.495Z,73.27
2023-02-02T00:33:44.356Z,73.75
2023-02-02T00:36:10.649Z,72.97
2023-02-02T00:38:38.031Z,73.34
2023-02-02T00:41:05.083Z,73.23
2023-02-02T00:43:31.395Z,73.81
2023-02-02T00:45:57.737Z,74.65
2023-02-02T00:48:25.798Z,73.93
2023-02-02T00:50:52.923Z,74.25
2023-02-02T00:53:19.527Z,74.19
2023-02-02T00:55:45.829Z,75.69
2023-02-02T00:58:12.153Z,75.96
2023-02-02T01:00:38.523Z,76.18
2023-02-02T01:03:06.889Z,76.37
2023-02-02T01:05:34.180Z,76.11
2023-02-02T01:08:00.702Z,75.87
2023-02-02T01:10:27.010Z,75.47
2023-02-02T01:12:53.475Z,75.78
2023-02-02T01:15:19.848Z,75.17
2023-02-02T01:17:46.267Z,74.76
2023-02-02T01:20:16.896Z,75.25
2023-02-02T01:22:43.214Z,74.94
2023-02-02T01:25:09.808Z,75.02
2023-02-02T01:27:36.171Z,75.65
2023-02-02T01:30:02.578Z,75.22
2023-02-02T01:32:28.851Z,74.96
2023-02-02T01:34:55.202Z,74.09
2023-02-02T01:37:22.194Z,74.81
2023-02-02T01:39:48.963Z,74.99
2023-02-02T01:42:19.723Z,74.43
2023-02-02T01:45:04.517Z,75.67
2023-02-02T01:47:33.536Z,75.51
2023-02-02T01:50:00.038Z,74.99
2023-02-02T01:52:28.382Z,74.25
2023-02-02T01:55:00.645Z,74.51
2023-02-02T01:57:33.396Z,74.35
2023-02-02T02:00:01.030Z,74.38
2023-02-02T02:02:28.020Z,73.88
2023-02-02T02:04:55.271Z,74.60
2023-02-02T02:07:21.973Z,74.25
2023-02-02T02:09:48.502Z,73.62
2023-02-02T02:12:15.521Z,73.44
2023-02-02T02:15:02.283Z,73.11
2023-02-02T02:17:51.560Z,72.70
2023-02-02T02:20:55.332Z,73.41
2023-02-02T02:23:49.201Z,72.53
2023-02-02T02:26:34.238Z,72.95
2023-02-02T02:29:19.463Z,73.72
2023-02-02T02:32:04.097Z,73.55
2023-02-02T02:34:49.317Z,73.09
2023-02-02T02:37:26.760Z,74.04
2023-02-02T02:39:57.602Z,73.17
2023-02-02T02:42:25.676Z,74.04
2023-02-02T02:44:53.179Z,73.62
2023-02-02T02:47:20.159Z,73.10
2023-02-02T02:49:47.782Z,73.42
2023-02-02T02:52:14.161Z,73.52
2023-02-02T02:54:49.732Z,73.42
2023-02-02T02:57:18.817Z,72.29
2023-02-02T02:59:57.018Z,72.82
2023-02-02T03:02:41.903Z,71.92
2023-02-02T03:05:19.209Z,72.75
2023-02-02T03:07:50.717Z,71.81
2023-02-02T03:10:18.984Z,71.85
2023-02-02T03:12:49.938Z,71.72
2023-02-02T03:15:16.869Z,71.97
2023-02-02T03:17:43.330Z,71.82
2023-02-02T03:20:10.438Z,72.10
2023-02-02T03:22:36.791Z,71.58
2023-02-02T03:25:03.344Z,71.57
2023-02-02T03:27:29.766Z,71.60
2023-02-02T03:29:56.151Z,71.51
2023-02-02T03:32:22.519Z,71.59
2023-02-02T03:34:48.805Z,71.58
2023-02-02T03:37:15.178Z,70.82
2023-02-02T03:39:41.455Z,71.20
2023-02-02T03:42:07.724Z,70.59
2023-02-02T03:44:34.061Z,71.43
2023-02-02T03:47:00.366Z,70.60
2023-02-02T03:49:26.642Z,71.14
2023-02-02T03:51:52.972Z,71.21
2023-02-02T03:54:19.297Z,70.88
2023-02-02T03:56:45.595Z,70.47
2023-02-02T03:59:11.901Z,70.20
2023-02-02T04:01:38.275Z,70.42
2023-02-02T04:04:04.630Z,70.32
2023-02-02T04:06:30.998Z,71.00
2023-02-02T04:08:57.369Z,70.69
2023-02-02T04:11:23.731Z,70.34
2023-02-02T04:13:50.045Z,69.90
2023-02-02T04:16:16.432Z,70.20
2023-02-02T04:18:42.854Z,69.85
2023-02-02T04:21:09.290Z,68.77
2023-02-02T04:23:35.884Z,68.92
2023-02-02T04:26:02.241Z,69.59
2023-02-02T04:28:28.625Z,68.66
2023-02-02T04:30:55.719Z,68.42
2023-02-02T04:33:23.214Z,68.53
2023-02-02T04:35:49.571Z,68.37
2023-02-02T04:38:16.100Z,68.13
2023-02-02T04:40:43.444Z,67.98
2023-02-02T04:43:10.197Z,68.03
2023-02-02T04:45:36.911Z,68.32
2023-02-02T04:48:03.453Z,67.84
2023-02-02T04:50:30.212Z,67.78
2023-02-02T04:52:56.539Z,67.74
2023-02-02T04:55:23.453Z,67.06
2023-02-02T04:57:50.257Z,67.54
2023-02-02T05:00:17.009Z,67.22
2023-02-02T05:02:43.413Z,67.65
2023-02-02T05:05:11.497Z,67.27
2023-02-02T05:07:37.897Z,67.15
2023-02-02T05:10:04.790Z,66.34
2023-02-02T05:12:31.197Z,66.72
2023-02-02T05:14:57.618Z,66.56
2023-02-02T05:17:23.947Z,66.95
2023-02-02T05:19:50.297Z,66.69
2023-02-02T05:22:16.603Z,66.52
2023-02-02T05:24:42.922Z,66.15
2023-02-02T05:27:09.250Z,65.92
2023-02-02T05:29:35.526Z,66.02
2023-02-02T05:32:01.865Z,65.73
2023-02-02T05:34:28.215Z,65.48
2023-02-02T05:36:54.509Z,65.39
2023-02-02T05:39:20.849Z,65.57
2023-02-02T05:41:47.187Z,65.74
2023-02-02T05:44:13.727Z,66.01
2023-02-02T05:46:40.116Z,65.74
2023-02-02T05:49:06.663Z,66.09
2023-02-02T05:51:53.639Z,65.07
2023-02-02T05:54:20.628Z,65.19
2023-02-02T05:56:47.780Z,65.41
2023-02-02T05:59:14.213Z,65.63
2023-02-02T06:01:40.572Z,65.31
2023-02-02T06:04:06.977Z,65.45
2023-02-02T06:06:35.479Z,64.46
2023-02-02T06:09:02.333Z,65.43
2023-02-02T06:11:28.663Z,64.63
2023-02-02T06:13:55.002Z,64.12
2023-02-02T06:16:21.366Z,65.10
2023-02-02T06:18:48.457Z,64.80
2023-02-02T06:21:14.896Z,65.06
2023-02-02T06:23:45.789Z,64.66
2023-02-02T06:26:15.735Z,66.02
2023-02-02T06:28:42.740Z,64.82
2023-02-02T06:31:10.970Z,64.63
2023-02-02T06:33:37.747Z,64.15
2023-02-02T06:36:05.083Z,63.97
2023-02-02T06:38:31.526Z,64.40
2023-02-02T06:41:01.501Z,63.43
2023-02-02T06:43:28.439Z,63.50
2023-02-02T06:45:54.787Z,63.99
2023-02-02T06:48:21.120Z,63.27
2023-02-02T06:50:47.442Z,63.73
2023-02-02T06:53:13.907Z,63.12
2023-02-02T06:55:40.203Z,63.16
2023-02-02T06:58:06.612Z,61.98
2023-02-02T07:00:33.227Z,62.82
2023-02-02T07:02:59.604Z,62.71
2023-02-02T07:05:30.117Z,63.67
2023-02-02T07:07:56.979Z,62.82
2023-02-02T07:11:14.446Z,63.55
2023-02-02T07:13:09.635Z,64.42
2023-02-02T07:15:38.446Z,63.90
2023-02-02T07:18:04.925Z,63.53
2023-02-02T07:20:31.475Z,64.08
2023-02-02T07:22:57.783Z,64.40
2023-02-02T07:25:24.401Z,64.99
2023-02-02T07:27:54.488Z,65.21
2023-02-02T07:30:21.424Z,66.18
2023-02-02T07:32:48.367Z,66.15
2023-02-02T07:35:15.247Z,65.65
2023-02-02T07:37:41.587Z,65.60
2023-02-02T07:40:08.704Z,65.54
2023-02-02T07:42:35.087Z,66.56
2023-02-02T07:45:25.595Z,66.05
2023-02-02T07:47:47.763Z,66.63
2023-02-02T07:50:14.099Z,66.55
2023-02-02T07:52:40.424Z,67.49
2023-02-02T07:55:14.472Z,67.54
2023-02-02T07:57:41.372Z,67.45
2023-02-02T08:00:08.034Z,67.51
2023-02-02T08:02:34.346Z,68.60
2023-02-02T08:05:00.702Z,68.34
2023-02-02T08:07:27.039Z,68.37
2023-02-02T08:09:53.431Z,69.43
2023-02-02T08:12:21.150Z,68.86
2023-02-02T08:14:47.516Z,68.92
2023-02-02T08:17:13.967Z,69.00
2023-02-02T08:19:40.290Z,68.69
2023-02-02T08:22:06.683Z,68.94
2023-02-02T08:24:32.973Z,69.66
2023-02-02T08:26:59.335Z,69.22
2023-02-02T08:29:25.791Z,68.93
2023-02-02T08:31:52.247Z,69.33
2023-02-02T08:34:18.724Z,69.19
2023-02-02T08:36:45.040Z,69.92
2023-02-02T08:39:12.181Z,69.61
2023-02-02T08:41:38.889Z,69.32
2023-02-02T08:44:06.065Z,69.06
2023-02-02T08:46:32.479Z,69.04
2023-02-02T08:48:59.025Z,69.38
2023-02-02T08:51:25.341Z,69.55
2023-02-02T08:53:51.615Z,69.19
2023-02-02T08:56:19.158Z,68.82
2023-02-02T08:58:50.146Z,69.12
2023-02-02T09:01:18.137Z,68.74
2023-02-02T09:03:45.013Z,68.58
2023-02-02T09:06:13.070Z,68.56
2023-02-02T09:08:39.699Z,68.12
2023-02-02T09:11:14.055Z,68.13
2023-02-02T09:13:41.056Z,67.91
2023-02-02T09:16:09.068Z,67.78
2023-02-02T09:18:35.458Z,67.84
2023-02-02T09:21:03.079Z,67.24
2023-02-02T09:23:31.079Z,67.49
2023-02-02T09:25:57.524Z,67.27
2023-02-02T09:28:23.957Z,66.61
2023-02-02T09:30:51.314Z,66.93
2023-02-02T09:33:17.675Z,66.29
2023-02-02T09:35:43.976Z,65.86
2023-02-02T09:38:10.293Z,65.36
2023-02-02T09:40:36.713Z,65.48
2023-02-02T09:43:21.621Z,65.57
2023-02-02T09:45:54.962Z,65.31
2023-02-02T09:48:42.692Z,66.36
2023-02-02T09:51:18.780Z,65.32
2023-02-02T09:53:56.118Z,66.09
2023-02-02T09:56:38.956Z,66.04
2023-02-02T09:59:19.339Z,66.81
2023-02-02T10:01:48.243Z,66.43
2023-02-02T10:04:20.613Z,65.75
2023-02-02T10:06:48.948Z,66.98
2023-02-02T10:09:18.096Z,65.61
2023-02-02T10:11:48.984Z,65.55
2023-02-02T10:14:19.642Z,65.27
2023-02-02T10:16:47.830Z,64.95
2023-02-02T10:19:14.933Z,65.07
2023-02-02T10:21:46.486Z,65.21
2023-02-02T10:24:17.814Z,64.30
2023-02-02T10:26:48.824Z,64.09
2023-02-02T10:29:48.547Z,64.51
2023-02-02T10:32:23.446Z,63.85
2023-02-02T10:35:13.808Z,63.49
2023-02-02T10:37:40.845Z,62.99
2023-02-02T10:40:07.173Z,63.53
2023-02-02T10:43:12.196Z,63.70
2023-02-02T10:45:41.521Z,63.59
2023-02-02T10:48:15.418Z,63.88
2023-02-02T10:50:48.074Z,64.06
2023-02-02T10:53:15.610Z,62.99
2023-02-02T10:55:59.916Z,63.31
2023-02-02T10:58:29.014Z,63.08
2023-02-02T11:00:57.905Z,63.38
2023-02-02T11:03:33.515Z,62.69
2023-02-02T11:06:19.906Z,62.71
2023-02-02T11:08:48.508Z,62.40
2023-02-02T11:11:20.426Z,62.47
2023-02-02T11:14:04.015Z,65.04
2023-02-02T11:16:42.151Z,66.31
2023-02-02T11:19:15.184Z,68.35
2023-02-02T11:21:45.022Z,68.97
2023-02-02T11:24:28.462Z,70.09
2023-02-02T11:26:56.950Z,68.88
2023-02-02T11:29:32.480Z,69.91
2023-02-02T11:32:17.262Z,69.98
2023-02-02T11:34:43.673Z,70.15
2023-02-02T11:37:21.134Z,69.43
2023-02-02T11:39:47.488Z,71.01
2023-02-02T11:42:17.609Z,71.12
2023-02-02T11:44:46.572Z,70.99
2023-02-02T11:47:42.063Z,69.81
2023-02-02T11:50:17.868Z,69.38
2023-02-02T11:52:45.669Z,70.35
2023-02-02T11:55:17.077Z,69.47
2023-02-02T11:58:03.342Z,68.99
2023-02-02T12:00:30.446Z,69.96
2023-02-02T12:02:58.184Z,69.13
2023-02-02T12:05:35.021Z,69.83
2023-02-02T12:08:01.513Z,69.22
2023-02-02T12:10:40.405Z,69.07
2023-02-02T12:13:06.706Z,68.38
2023-02-02T12:15:47.795Z,68.83
2023-02-02T12:18:31.506Z,69.08
2023-02-02T12:21:15.983Z,68.49
2023-02-02T12:24:01.143Z,68.27
2023-02-02T12:26:29.272Z,67.89
2023-02-02T12:29:03.596Z,67.81
2023-02-02T12:31:42.299Z,67.40
2023-02-02T12:34:10.748Z,67.19
2023-02-02T12:37:00.211Z,66.23
2023-02-02T12:39:26.495Z,66.02
2023-02-02T12:42:14.481Z,66.01
2023-02-02T12:44:50.898Z,66.11
2023-02-02T12:47:17.396Z,66.05
2023-02-02T12:49:53.084Z,66.04
2023-02-02T12:52:34.516Z,66.25
2023-02-02T12:55:19.670Z,66.03
2023-02-02T12:57:46.130Z,65.78
2023-02-02T13:00:24.044Z,65.13
2023-02-02T13:02:59.874Z,64.57
2023-02-02T13:05:38.516Z,64.47
2023-02-02T13:08:37.458Z,64.46
2023-02-02T13:11:06.808Z,64.37
2023-02-02T13:13:37.452Z,64.00
2023-02-02T13:16:09.023Z,63.32
2023-02-02T13:18:38.845Z,62.15
2023-02-02T13:21:07.677Z,61.55
2023-02-02T13:23:36.309Z,60.36
2023-02-02T13:26:21.342Z,61.02
2023-02-02T13:28:57.108Z,60.11
2023-02-02T13:31:26.600Z,60.36
2023-02-02T13:34:05.115Z,60.46
2023-02-02T13:36:37.423Z,59.89
2023-02-02T13:39:12.391Z,60.33
2023-02-02T13:41:39.143Z,60.07
2023-02-02T13:44:13.706Z,60.28
2023-02-02T13:46:48.106Z,59.29
2023-02-02T13:49:23.219Z,58.95
2023-02-02T13:51:53.832Z,58.38
2023-02-02T13:54:20.197Z,57.65
2023-02-02T13:56:46.472Z,57.74
2023-02-02T13:59:14.152Z,57.73
2023-02-02T14:01:43.014Z,56.46
2023-02-02T14:04:19.697Z,56.33
2023-02-02T14:06:52.546Z,56.07
2023-02-02T14:09:19.382Z,56.09
2023-02-02T14:11:53.385Z,56.04
2023-02-02T14:14:34.450Z,56.28
2023-02-02T14:17:02.019Z,56.00
2023-02-02T14:19:28.312Z,55.41
2023-02-02T14:22:00.679Z,55.73
2023-02-02T14:24:27.125Z,55.64
2023-02-02T14:26:54.494Z,55.72
2023-02-02T14:29:29.329Z,55.93
2023-02-02T14:31:56.775Z,55.64
2023-02-02T14:34:53.592Z,54.97
2023-02-02T14:37:22.761Z,55.40
2023-02-02T14:39:52.070Z,54.10
2023-02-02T14:42:45.206Z,54.76
2023-02-02T14:45:11.502Z,55.43
2023-02-02T14:47:48.747Z,54.47
2023-02-02T14:50:17.569Z,54.50
2023-02-02T14:52:44.168Z,53.73
2023-02-02T14:55:18.195Z,53.84
2023-02-02T14:57:44.596Z,54.54
2023-02-02T15:00:21.224Z,54.72
2023-02-02T15:02:53.177Z,54.03
2023-02-02T15:05:28.821Z,53.97
2023-02-02T15:08:05.960Z,54.68
2023-02-02T15:10:48.103Z,53.99
2023-02-02T15:13:15.984Z,54.90
2023-02-02T15:15:43.959Z,55.34
2023-02-02T15:18:15.833Z,54.98
2023-02-02T15:21:01.376Z,54.89
2023-02-02T15:23:30.604Z,55.51
2023-02-02T15:25:59.672Z,56.08
2023-02-02T15:28:38.256Z,56.14
2023-02-02T15:31:16.927Z,55.30
2023-02-02T15:33:44.863Z,56.86
2023-02-02T15:36:13.994Z,56.54
2023-02-02T15:38:41.832Z,57.40
2023-02-02T15:41:16.404Z,57.79
2023-02-02T15:43:43.040Z,57.47
2023-02-02T15:46:13.363Z,59.15
2023-02-02T15:48:39.978Z,58.14
2023-02-02T15:51:16.907Z,58.18
2023-02-02T15:53:43.213Z,57.20
2023-02-02T15:56:24.585Z,58.77
2023-02-02T15:58:52.448Z,58.55
2023-02-02T16:01:21.267Z,57.86
2023-02-02T16:03:47.730Z,58.73
2023-02-02T16:06:14.402Z,57.86
2023-02-02T16:08:41.372Z,58.98
2023-02-02T16:11:13.681Z,57.29
2023-02-02T16:13:40.757Z,57.33
2023-02-02T16:16:20.702Z,58.17
2023-02-02T16:18:47.197Z,56.81
2023-02-02T16:21:24.623Z,58.98
2023-02-02T16:23:51.346Z,58.30
2023-02-02T16:26:19.497Z,57.69
2023-02-02T16:28:46.759Z,58.09
2023-02-02T16:31:14.513Z,59.38
2023-02-02T16:33:41.781Z,57.85
2023-02-02T16:36:31.365Z,59.40
2023-02-02T16:38:58.461Z,59.03
2023-02-02T16:41:29.784Z,59.71
2023-02-02T16:43:56.201Z,58.71
2023-02-02T16:46:45.768Z,59.61
2023-02-02T16:49:17.906Z,59.27
2023-02-02T16:51:45.361Z,59.32
2023-02-02T16:54:17.781Z,59.69
2023-02-02T16:56:46.169Z,60.91
2023-02-02T16:59:22.374Z,61.27
2023-02-02T17:01:51.899Z,60.99
2023-02-02T17:04:21.064Z,61.22
2023-02-02T17:06:52.819Z,61.92
2023-02-02T17:09:34.518Z,60.78
2023-02-02T17:12:01.884Z,61.84
2023-02-02T17:14:29.930Z,63.44
2023-02-02T17:16:56.364Z,62.23
2023-02-02T17:19:22.783Z,62.70
2023-02-02T17:21:49.486Z,62.21
2023-02-02T17:24:17.067Z,63.74
2023-02-02T17:26:43.598Z,62.96
2023-02-02T17:29:12.627Z,63.81
2023-02-02T17:31:39.196Z,62.98
2023-02-02T17:34:14.594Z,63.05
2023-02-02T17:36:41.430Z,64.77
2023-02-02T17:39:09.522Z,63.03
2023-02-02T17:41:37.139Z,64.11
2023-02-02T17:44:05.287Z,65.50
2023-02-02T17:46:32.327Z,64.46
2023-02-02T17:48:58.800Z,65.60
2023-02-02T17:51:25.208Z,66.10
2023-02-02T17:53:52.122Z,64.58
2023-02-02T17:56:19.463Z,66.01
2023-02-02T17:58:45.917Z,66.52
2023-02-02T18:01:12.537Z,65.30
2023-02-02T18:03:40.497Z,65.46
2023-02-02T18:06:07.124Z,65.68
2023-02-02T18:08:33.781Z,66.91
2023-02-02T18:11:00.600Z,67.25
2023-02-02T18:13:27.068Z,66.46
2023-02-02T18:15:53.549Z,67.72
2023-02-02T18:18:19.954Z,66.25
2023-02-02T18:20:47.910Z,67.06
2023-02-02T18:23:14.842Z,66.35
2023-02-02T18:25:41.389Z,66.24
2023-02-02T18:28:08.152Z,67.26
2023-02-02T18:30:34.521Z,66.13
2023-02-02T18:33:00.955Z,65.68
2023-02-02T18:35:28.253Z,67.46
2023-02-02T18:37:54.668Z,67.53
2023-02-02T18:40:21.008Z,67.12
2023-02-02T18:42:47.392Z,66.95
2023-02-02T18:45:14.859Z,67.01
2023-02-02T18:47:41.635Z,67.22
2023-02-02T18:50:08.236Z,67.84
2023-02-02T18:52:34.845Z,67.71
2023-02-02T18:55:01.286Z,66.59
2023-02-02T18:57:29.086Z,67.03
2023-02-02T18:59:55.446Z,68.38
2023-02-02T19:02:21.911Z,66.76
2023-02-02T19:05:06.969Z,67.90
2023-02-02T19:07:52.302Z,67.23
2023-02-02T19:10:18.928Z,67.92
2023-02-02T19:13:00.870Z,68.85
2023-02-02T19:15:27.635Z,67.77
2023-02-02T19:17:55.104Z,68.76
2023-02-02T19:20:23.757Z,68.24
2023-02-02T19:22:50.264Z,69.06
2023-02-02T19:25:17.480Z,68.18
2023-02-02T19:27:44.015Z,68.71
2023-02-02T19:30:19.271Z,69.05
2023-02-02T19:32:45.857Z,69.73
2023-02-02T19:35:20.308Z,69.78
2023-02-02T19:37:48.370Z,68.36
2023-02-02T19:40:22.531Z,69.79
2023-02-02T19:42:55.610Z,68.30
2023-02-02T19:45:24.780Z,69.91
2023-02-02T19:47:52.405Z,70.10
2023-02-02T19:50:20.355Z,68.92
2023-02-02T19:52:47.431Z,70.07
2023-02-02T19:55:25.917Z,70.05
2023-02-02T19:57:53.139Z,69.76
2023-02-02T20:00:27.864Z,69.27
2023-02-02T20:03:06.659Z,70.58
2023-02-02T20:05:36.257Z,69.65
2023-02-02T20:08:23.267Z,69.55
2023-02-02T20:10:50.410Z,69.63
2023-02-02T20:13:21.633Z,69.38
2023-02-02T20:15:48.934Z,69.51
2023-02-02T20:18:23.755Z,71.42
2023-02-02T20:20:52.461Z,71.02
2023-02-02T20:23:27.954Z,70.04
2023-02-02T20:25:54.517Z,69.95
2023-02-02T20:28:34.162Z,70.76
2023-02-02T20:31:04.793Z,69.43
2023-02-02T20:33:33.125Z,69.41
2023-02-02T20:36:00.698Z,70.74
2023-02-02T20:38:28.715Z,70.29
2023-02-02T20:40:55.682Z,69.38
2023-02-02T20:43:22.214Z,70.36
2023-02-02T20:45:48.808Z,70.62
2023-02-02T20:48:15.348Z,69.49
2023-02-02T20:50:41.802Z,68.57
2023-02-02T20:53:08.766Z,69.29
2023-02-02T20:55:38.069Z,69.25
2023-02-02T20:58:04.952Z,69.18
2023-02-02T21:00:31.887Z,70.70
2023-02-02T21:02:58.265Z,69.93
2023-02-02T21:05:25.105Z,70.31
2023-02-02T21:07:54.643Z,70.28
2023-02-02T21:10:22.017Z,70.39
2023-02-02T21:12:51.478Z,68.94
2023-02-02T21:15:19.047Z,70.75
2023-02-02T21:17:45.445Z,69.02
2023-02-02T21:20:12.951Z,70.65
2023-02-02T21:22:39.260Z,69.99
2023-02-02T21:25:06.080Z,70.13
2023-02-02T21:27:32.482Z,70.98
2023-02-02T21:29:58.768Z,69.74
2023-02-02T21:32:25.079Z,71.43
2023-02-02T21:34:51.427Z,71.17
2023-02-02T21:37:17.816Z,70.63
2023-02-02T21:39:49.533Z,70.30
2023-02-02T21:42:17.733Z,70.95
2023-02-02T21:44:45.572Z,71.27
2023-02-02T21:47:24.061Z,70.45
2023-02-02T21:49:50.441Z,71.54
2023-02-02T21:52:18.093Z,70.38
2023-02-02T21:54:45.032Z,71.19
2023-02-02T21:57:16.760Z,72.04
2023-02-02T21:59:45.544Z,70.93
2023-02-02T22:02:35.334Z,71.78
2023-02-02T22:05:01.974Z,70.92
2023-02-02T22:07:28.770Z,72.24
2023-02-02T22:09:56.011Z,72.64
2023-02-02T22:12:27.373Z,72.33
2023-02-02T22:14:57.676Z,74.03
2023-02-02T22:17:40.257Z,74.14
2023-02-02T22:20:15.614Z,72.51
2023-02-02T22:22:44.751Z,72.70
2023-02-02T22:25:16.789Z,73.24
2023-02-02T22:27:46.320Z,72.62
2023-02-02T22:30:18.848Z,73.09
2023-02-02T22:32:45.134Z,72.00
2023-02-02T22:35:11.431Z,73.64
2023-02-02T22:37:37.729Z,72.44
2023-02-02T22:40:04.122Z,72.17
2023-02-02T22:42:30.501Z,72.45
2023-02-02T22:44:56.803Z,71.52
2023-02-02T22:47:23.163Z,72.27
2023-02-02T22:49:49.526Z,72.29
2023-02-02T22:52:15.844Z,73.02
2023-02-02T22:54:42.151Z,72.05
2023-02-02T22:57:08.525Z,71.71
2023-02-02T22:59:35.051Z,73.22
2023-02-02T23:02:01.463Z,73.64
2023-02-02T23:04:27.757Z,73.68
2023-02-02T23:06:54.071Z,71.55
2023-02-02T23:09:20.423Z,72.79
2023-02-02T23:11:49.142Z,73.39
2023-02-02T23:14:15.693Z,73.49
2023-02-02T23:16:41.996Z,73.49
2023-02-02T23:19:08.342Z,71.76
2023-02-02T23:21:34.658Z,72.86
2023-02-02T23:24:00.991Z,72.15
2023-02-02T23:26:27.388Z,72.84
2023-02-02T23:28:53.690Z,72.37
2023-02-02T23:31:20.083Z,72.02
2023-02-02T23:33:46.540Z,72.82
2023-02-02T23:36:12.890Z,73.37
2023-02-02T23:38:39.190Z,73.53
2023-02-02T23:41:05.637Z,74.59
2023-02-02T23:43:32.006Z,73.07
2023-02-02T23:46:00.055Z,74.25
2023-02-02T23:48:26.494Z,74.96
2023-02-02T23:50:53.226Z,75.55
2023-02-02T23:53:19.725Z,75.20
2023-02-02T23:55:46.373Z,74.87
2023-02-02T23:58:13.324Z,75.90
